createdAt,value
2022-11-24T00:01:06.201Z,100353.63
2022-11-24T00:03:33.163Z,100345.78
2022-11-24T00:06:07.744Z,100349.06
2022-11-24T00:08:39.231Z,100338.47
2022-11-24T00:11:17.469Z,100336.66
2022-11-24T00:13:44.243Z,100354.66
2022-11-24T00:16:13.271Z,100355.53
2022-11-24T00:18:41.907Z,100376.97
2022-11-24T00:21:08.756Z,100382.13
2022-11-24T00:23:36.004Z,100383.91
2022-11-24T00:26:12.970Z,100375.38
2022-11-24T00:28:40.563Z,100374.59
2022-11-24T00:31:19.776Z,100374.69
2022-11-24T00:33:48.320Z,100377.28
2022-11-24T00:36:16.133Z,100375.56
2022-11-24T00:38:42.965Z,100383.44
2022-11-24T00:41:09.510Z,100378.31
2022-11-24T00:43:36.003Z,100377.34
2022-11-24T00:46:02.835Z,100372.09
2022-11-24T00:48:30.486Z,100381.75
2022-11-24T00:51:02.597Z,100374.88
2022-11-24T00:53:29.273Z,100389.69
2022-11-24T00:55:56.022Z,100379.47
2022-11-24T00:58:23.680Z,100389.13
2022-11-24T01:00:50.934Z,100396.97
2022-11-24T01:03:18.970Z,100400.47
2022-11-24T01:05:45.662Z,100405.69
2022-11-24T01:08:12.740Z,100417.06
2022-11-24T01:10:39.381Z,100418.03
2022-11-24T01:13:06.020Z,100411.19
2022-11-24T01:15:35.709Z,100410.41
2022-11-24T01:18:02.780Z,100409.56
2022-11-24T01:20:29.504Z,100414.91
2022-11-24T01:22:56.011Z,100425.31
2022-11-24T01:25:22.526Z,100422.88
2022-11-24T01:27:49.034Z,100429.03
2022-11-24T01:30:15.598Z,100419.56
2022-11-24T01:32:42.170Z,100424.00
2022-11-24T01:35:09.388Z,100424.00
2022-11-24T01:37:35.896Z,100419.66
2022-11-24T01:40:02.419Z,100418.81
2022-11-24T01:42:39.925Z,100430.97
2022-11-24T01:45:31.262Z,100425.81
2022-11-24T01:47:59.069Z,100421.59
2022-11-24T01:50:25.921Z,100434.53
2022-11-24T01:52:55.403Z,100432.88
2022-11-24T01:55:28.551Z,100442.38
2022-11-24T01:58:11.304Z,100434.47
2022-11-24T02:00:39.604Z,100434.41
2022-11-24T02:03:07.267Z,100438.59
2022-11-24T02:05:41.576Z,100448.78
2022-11-24T02:08:16.213Z,100453.78
2022-11-24T02:10:44.133Z,100431.13
2022-11-24T02:13:10.786Z,100443.09
2022-11-24T02:15:37.359Z,100448.13
2022-11-24T02:18:04.183Z,100447.09
2022-11-24T02:20:30.759Z,100445.19
2022-11-24T02:23:05.415Z,100443.28
2022-11-24T02:25:56.612Z,100458.56
2022-11-24T02:28:26.793Z,100456.66
2022-11-24T02:30:54.245Z,100447.81
2022-11-24T02:33:22.539Z,100460.72
2022-11-24T02:35:49.062Z,100461.41
2022-11-24T02:38:15.582Z,100457.81
2022-11-24T02:40:46.682Z,100468.97
2022-11-24T02:43:17.898Z,100464.63
2022-11-24T02:45:44.424Z,100464.63
2022-11-24T02:48:10.941Z,100468.88
2022-11-24T02:50:37.738Z,100475.75
2022-11-24T02:53:04.247Z,100469.66
2022-11-24T02:55:30.750Z,100483.44
2022-11-24T02:57:57.420Z,100478.34
2022-11-24T03:00:24.063Z,100475.81
2022-11-24T03:02:50.864Z,100480.09
2022-11-24T03:05:17.950Z,100469.66
2022-11-24T03:07:44.683Z,100471.31
2022-11-24T03:10:11.228Z,100468.69
2022-11-24T03:12:37.767Z,100465.25
2022-11-24T03:15:17.441Z,100461.66
2022-11-24T03:17:44.003Z,100468.44
2022-11-24T03:20:11.014Z,100477.16
2022-11-24T03:22:37.816Z,100474.59
2022-11-24T03:25:04.845Z,100478.81
2022-11-24T03:27:31.900Z,100469.13
2022-11-24T03:29:58.489Z,100477.84
2022-11-24T03:32:25.553Z,100469.97
2022-11-24T03:34:52.099Z,100475.16
2022-11-24T03:37:18.819Z,100481.22
2022-11-24T03:39:45.350Z,100485.53
2022-11-24T03:42:11.928Z,100481.25
2022-11-24T03:44:38.429Z,100486.53
2022-11-24T03:47:04.957Z,100480.56
2022-11-24T03:49:31.619Z,100483.16
2022-11-24T03:51:59.864Z,100487.44
2022-11-24T03:54:29.172Z,100496.03
2022-11-24T03:56:56.149Z,100494.38
2022-11-24T03:59:22.704Z,100496.97
2022-11-24T04:01:49.271Z,100502.13
2022-11-24T04:04:15.838Z,100496.97
2022-11-24T04:06:42.395Z,100508.94
2022-11-24T04:09:09.248Z,100510.59
2022-11-24T04:11:54.353Z,100507.03
2022-11-24T04:14:21.032Z,100514.03
2022-11-24T04:16:47.518Z,100510.69
2022-11-24T04:19:13.963Z,100524.25
2022-11-24T04:21:40.487Z,100524.25
2022-11-24T04:24:07.042Z,100533.78
2022-11-24T04:26:33.450Z,100533.94
2022-11-24T04:28:59.861Z,100530.50
2022-11-24T04:31:26.398Z,100545.22
2022-11-24T04:33:52.888Z,100533.88
2022-11-24T04:36:19.343Z,100545.06
2022-11-24T04:39:24.540Z,100550.31
2022-11-24T04:41:32.248Z,100550.31
2022-11-24T04:43:58.835Z,100546.88
2022-11-24T04:46:25.382Z,100557.19
2022-11-24T04:48:51.937Z,100558.97
2022-11-24T04:51:18.458Z,100566.78
2022-11-24T04:53:45.007Z,100577.09
2022-11-24T04:56:11.426Z,100583.88
2022-11-24T04:58:37.881Z,100587.28
2022-11-24T05:01:07.295Z,100588.06
2022-11-24T05:03:34.244Z,100584.69
2022-11-24T05:06:00.832Z,100599.22
2022-11-24T05:08:27.304Z,100600.13
2022-11-24T05:10:53.772Z,100606.09
2022-11-24T05:13:20.222Z,100602.56
2022-11-24T05:15:46.714Z,100616.38
2022-11-24T05:18:17.276Z,100620.66
2022-11-24T05:20:46.553Z,100629.19
2022-11-24T05:23:13.000Z,100626.69
2022-11-24T05:25:40.529Z,100633.75
2022-11-24T05:28:10.195Z,100641.66
2022-11-24T05:30:38.839Z,100640.13
2022-11-24T05:33:12.184Z,100641.94
2022-11-24T05:35:38.724Z,100653.28
2022-11-24T05:38:05.237Z,100644.81
2022-11-24T05:40:31.707Z,100650.13
2022-11-24T05:42:58.150Z,100664.06
2022-11-24T05:45:24.628Z,100666.78
2022-11-24T05:47:51.548Z,100661.75
2022-11-24T05:50:19.830Z,100669.66
2022-11-24T05:52:46.765Z,100668.94
2022-11-24T05:55:15.005Z,100680.28
2022-11-24T05:57:42.243Z,100691.56
2022-11-24T06:00:09.967Z,100695.03
2022-11-24T06:02:36.481Z,100700.28
2022-11-24T06:05:03.107Z,100705.47
2022-11-24T06:07:29.622Z,100705.50
2022-11-24T06:09:56.082Z,100715.88
2022-11-24T06:12:22.686Z,100715.88
2022-11-24T06:14:49.137Z,100723.66
2022-11-24T06:17:15.541Z,100728.00
2022-11-24T06:19:42.396Z,100734.00
2022-11-24T06:22:08.941Z,100737.59
2022-11-24T06:24:35.611Z,100737.59
2022-11-24T06:27:02.309Z,100747.88
2022-11-24T06:29:28.722Z,100748.72
2022-11-24T06:31:55.273Z,100762.50
2022-11-24T06:34:21.841Z,100766.00
2022-11-24T06:36:48.330Z,100767.69
2022-11-24T06:39:14.794Z,100762.47
2022-11-24T06:41:41.192Z,100778.00
2022-11-24T06:44:07.616Z,100775.41
2022-11-24T06:46:34.067Z,100796.13
2022-11-24T06:49:00.676Z,100797.03
2022-11-24T06:51:27.742Z,100793.66
2022-11-24T06:53:55.262Z,100797.22
2022-11-24T06:56:22.102Z,100810.38
2022-11-24T06:58:50.801Z,100807.91
2022-11-24T07:01:23.102Z,100815.88
2022-11-24T07:03:50.626Z,100809.09
2022-11-24T07:06:18.271Z,100828.13
2022-11-24T07:08:45.050Z,100826.50
2022-11-24T07:11:15.583Z,100834.34
2022-11-24T07:13:43.272Z,100839.53
2022-11-24T07:16:18.039Z,100842.03
2022-11-24T07:18:46.749Z,100848.97
2022-11-24T07:21:13.719Z,100849.81
2022-11-24T07:23:40.163Z,100854.94
2022-11-24T07:26:08.388Z,100856.56
2022-11-24T07:28:36.539Z,100861.69
2022-11-24T07:31:07.614Z,100859.88
2022-11-24T07:33:34.497Z,100858.97
2022-11-24T07:36:02.041Z,100860.66
2022-11-24T07:38:30.229Z,100864.06
2022-11-24T07:41:06.880Z,100874.44
2022-11-24T07:43:35.437Z,100886.50
2022-11-24T07:46:02.790Z,100894.19
2022-11-24T07:48:29.590Z,100896.75
2022-11-24T07:51:00.443Z,100903.59
2022-11-24T07:53:27.260Z,100905.28
2022-11-24T07:56:00.250Z,100913.91
2022-11-24T07:58:33.181Z,100919.88
2022-11-24T08:01:00.699Z,100925.13
2022-11-24T08:03:27.993Z,100931.91
2022-11-24T08:08:46.403Z,100939.63
2022-11-24T08:11:16.557Z,100952.47
2022-11-24T08:13:43.169Z,100954.06
2022-11-24T08:16:17.764Z,100953.97
2022-11-24T08:18:50.104Z,100954.81
2022-11-24T08:21:16.800Z,100961.56
2022-11-24T08:23:43.287Z,100961.50
2022-11-24T08:26:17.836Z,100961.38
2022-11-24T08:28:46.798Z,100951.88
2022-11-24T08:31:15.926Z,100957.84
2022-11-24T08:33:42.816Z,100961.28
2022-11-24T08:36:13.710Z,100967.38
2022-11-24T08:38:40.779Z,100967.38
2022-11-24T08:41:10.852Z,100972.47
2022-11-24T08:43:37.499Z,100983.53
2022-11-24T08:46:08.896Z,100982.53
2022-11-24T08:48:35.517Z,100975.47
2022-11-24T08:51:12.141Z,100982.28
2022-11-24T08:53:39.697Z,100983.09
2022-11-24T08:56:07.592Z,100997.81
2022-11-24T08:58:34.707Z,101003.00
2022-11-24T09:01:27.930Z,100997.91
2022-11-24T09:03:54.674Z,101004.13
2022-11-24T09:06:24.821Z,101013.72
2022-11-24T09:08:53.997Z,101008.59
2022-11-24T09:11:20.583Z,101008.53
2022-11-24T09:13:47.502Z,101011.75
2022-11-24T09:16:17.518Z,101014.31
2022-11-24T09:18:44.108Z,101029.75
2022-11-24T09:21:13.323Z,101027.16
2022-11-24T09:23:40.701Z,101023.72
2022-11-24T09:26:13.205Z,101029.56
2022-11-24T09:28:40.369Z,101031.00
2022-11-24T09:31:10.299Z,101035.13
2022-11-24T09:33:37.279Z,101032.34
2022-11-24T09:36:05.018Z,101035.53
2022-11-24T09:38:31.759Z,101046.50
2022-11-24T09:41:15.190Z,101053.19
2022-11-24T09:43:47.665Z,101045.19
2022-11-24T09:46:23.141Z,101052.84
2022-11-24T09:48:54.917Z,101050.00
2022-11-24T09:51:25.721Z,101060.91
2022-11-24T09:54:02.288Z,101071.16
2022-11-24T09:56:34.392Z,101073.56
2022-11-24T09:59:05.191Z,101073.31
2022-11-24T10:01:37.412Z,101077.41
2022-11-24T10:04:11.078Z,101079.88
2022-11-24T10:07:01.077Z,101086.69
2022-11-24T10:09:53.247Z,101089.94
2022-11-24T10:12:35.917Z,101089.72
2022-11-24T10:15:25.594Z,101094.66
2022-11-24T10:18:00.899Z,101098.72
2022-11-24T10:20:30.488Z,101099.44
2022-11-24T10:23:12.195Z,101093.16
2022-11-24T10:25:59.414Z,101112.25
2022-11-24T10:28:39.973Z,101106.25
2022-11-24T10:31:41.130Z,101112.97
2022-11-24T10:34:16.057Z,101112.63
2022-11-24T10:37:16.135Z,101120.25
2022-11-24T10:39:59.889Z,101125.22
2022-11-24T10:42:38.707Z,101120.63
2022-11-24T10:45:17.582Z,101131.72
2022-11-24T10:47:45.131Z,101131.38
2022-11-24T10:50:27.775Z,101131.13
2022-11-24T10:53:00.096Z,101136.84
2022-11-24T10:55:26.621Z,101138.56
2022-11-24T10:57:53.091Z,101137.31
2022-11-24T11:00:19.437Z,101138.75
2022-11-24T11:02:48.211Z,101141.91
2022-11-24T11:05:33.498Z,101137.28
2022-11-24T11:08:21.782Z,101144.72
2022-11-24T11:11:07.334Z,101154.22
2022-11-24T11:13:33.887Z,101147.47
2022-11-24T11:16:00.445Z,101150.00
2022-11-24T11:18:34.060Z,101146.44
2022-11-24T11:21:02.457Z,101151.69
2022-11-24T11:23:32.507Z,101150.75
2022-11-24T11:26:17.612Z,101146.56
2022-11-24T11:34:51.032Z,101153.44
2022-11-24T11:37:18.946Z,101152.53
2022-11-24T11:39:50.415Z,101151.53
2022-11-24T11:43:01.403Z,101131.53
2022-11-24T11:45:43.649Z,101141.72
2022-11-24T11:48:25.200Z,101144.78
2022-11-24T11:51:22.414Z,101154.06
2022-11-24T11:53:54.420Z,101146.97
2022-11-24T11:56:34.906Z,101146.06
2022-11-24T11:59:26.255Z,101152.16
2022-11-24T12:02:11.499Z,101147.81
2022-11-24T12:05:02.019Z,101145.00
2022-11-24T12:07:36.656Z,101149.16
2022-11-24T12:10:12.055Z,101155.00
2022-11-24T12:12:48.878Z,101143.53
2022-11-24T12:15:32.747Z,101150.41
2022-11-24T12:18:56.540Z,101147.00
2022-11-24T12:21:32.443Z,101144.41
2022-11-24T12:24:11.009Z,101148.63
2022-11-24T12:26:40.654Z,101145.97
2022-11-24T12:29:34.356Z,101145.88
2022-11-24T12:32:39.333Z,101148.25
2022-11-24T12:35:05.890Z,101150.03
2022-11-24T12:37:51.219Z,101145.84
2022-11-24T12:40:35.324Z,101147.50
2022-11-24T12:43:04.897Z,101153.47
2022-11-24T12:45:44.795Z,101156.06
2022-11-24T12:48:32.006Z,101163.81
2022-11-24T12:50:59.801Z,101169.88
2022-11-24T12:53:31.372Z,101171.63
2022-11-24T12:56:07.567Z,101176.91
2022-11-24T12:58:57.836Z,101176.19
2022-11-24T13:01:46.042Z,101177.28
2022-11-24T13:04:29.552Z,101178.34
2022-11-24T13:07:18.279Z,101171.44
2022-11-24T13:13:17.763Z,101160.94
2022-11-24T13:16:35.084Z,101167.00
2022-11-24T13:19:15.076Z,101172.19
2022-11-24T13:21:41.564Z,101169.59
2022-11-24T13:24:17.491Z,101173.03
2022-11-24T13:26:50.627Z,101168.84
2022-11-24T13:29:37.612Z,101167.91
2022-11-24T13:32:04.035Z,101165.41
2022-11-24T13:34:39.472Z,101166.31
2022-11-24T13:37:34.465Z,101168.91
2022-11-24T13:40:11.693Z,101170.75
2022-11-24T13:42:57.214Z,101167.38
2022-11-24T13:45:38.941Z,101165.69
2022-11-24T13:48:21.205Z,101165.69
2022-11-24T13:50:51.369Z,101162.31
2022-11-24T13:53:35.049Z,101169.19
2022-11-24T13:56:13.668Z,101169.31
2022-11-24T13:58:42.863Z,101165.03
2022-11-24T14:01:12.406Z,101159.00
2022-11-24T14:03:55.445Z,101162.44
2022-11-24T14:06:41.954Z,101159.97
2022-11-24T14:09:23.011Z,101170.53
2022-11-24T14:12:08.161Z,101159.38
2022-11-24T14:14:35.129Z,101160.19
2022-11-24T14:17:14.610Z,101165.41
2022-11-24T14:19:41.752Z,101162.84
2022-11-24T14:22:36.450Z,101167.31
2022-11-24T14:25:03.759Z,101164.00
2022-11-24T14:27:38.443Z,101162.47
2022-11-24T14:30:08.160Z,101158.25
2022-11-24T14:32:34.656Z,101143.53
2022-11-24T14:35:01.296Z,101143.75
2022-11-24T14:37:27.829Z,101157.72
2022-11-24T14:39:54.264Z,101153.59
2022-11-24T14:42:25.009Z,101158.06
2022-11-24T14:44:56.627Z,101163.50
2022-11-24T14:47:37.338Z,101161.88
2022-11-24T14:50:12.728Z,101161.22
2022-11-24T14:52:50.634Z,101164.94
2022-11-24T14:55:31.995Z,101160.84
2022-11-24T14:57:59.748Z,101157.56
2022-11-24T15:00:31.597Z,101156.00
2022-11-24T15:03:01.204Z,101154.47
2022-11-24T15:06:00.967Z,101159.78
2022-11-24T15:08:33.361Z,101167.72
2022-11-24T15:11:02.261Z,101164.41
2022-11-24T15:13:32.922Z,101168.88
2022-11-24T15:16:23.122Z,101170.81
2022-11-24T15:18:58.227Z,101171.91
2022-11-24T15:21:33.736Z,101168.59
2022-11-24T15:24:06.442Z,101175.63
2022-11-24T15:26:36.901Z,101176.59
2022-11-24T15:29:04.884Z,101181.94
2022-11-24T15:31:32.022Z,101187.25
2022-11-24T15:33:58.561Z,101177.91
2022-11-24T15:36:24.963Z,101187.50
2022-11-24T15:38:52.246Z,101187.63
2022-11-24T15:41:27.635Z,101183.53
2022-11-24T15:43:59.332Z,101175.88
2022-11-24T15:46:27.564Z,101182.03
2022-11-24T15:48:55.140Z,101185.66
2022-11-24T15:51:23.686Z,101175.31
2022-11-24T15:54:00.411Z,101172.00
2022-11-24T15:56:35.668Z,101180.78
2022-11-24T15:59:02.706Z,101180.91
2022-11-24T16:01:32.363Z,101176.69
2022-11-24T16:03:59.208Z,101178.44
2022-11-24T16:06:25.840Z,101181.16
2022-11-24T16:08:55.759Z,101181.28
2022-11-24T16:11:22.985Z,101177.97
2022-11-24T16:13:53.253Z,101178.03
2022-11-24T16:16:22.069Z,101179.00
2022-11-24T16:18:48.585Z,101176.47
2022-11-24T16:21:15.210Z,101168.72
2022-11-24T16:23:41.736Z,101174.00
2022-11-24T16:26:08.394Z,101173.19
2022-11-24T16:28:35.146Z,101175.88
2022-11-24T16:31:01.627Z,101177.66
2022-11-24T16:33:31.452Z,101180.25
2022-11-24T16:35:57.966Z,101182.97
2022-11-24T16:38:24.456Z,101181.28
2022-11-24T16:40:56.307Z,101187.38
2022-11-24T16:43:24.459Z,101190.03
2022-11-24T16:46:03.348Z,101189.22
2022-11-24T16:48:34.860Z,101196.25
2022-11-24T16:51:06.442Z,101183.28
2022-11-24T16:53:32.865Z,101186.72
2022-11-24T16:55:59.407Z,101185.06
2022-11-24T16:58:25.834Z,101173.84
2022-11-24T17:00:52.345Z,101175.72
2022-11-24T17:03:19.199Z,101180.97
2022-11-24T17:05:56.905Z,101180.19
2022-11-24T17:08:23.401Z,101178.50
2022-11-24T17:10:49.814Z,101182.88
2022-11-24T17:13:16.253Z,101179.50
2022-11-24T17:15:47.243Z,101182.16
2022-11-24T17:18:24.595Z,101177.81
2022-11-24T17:20:51.525Z,101180.47
2022-11-24T17:23:19.617Z,101178.72
2022-11-24T17:25:46.271Z,101180.41
2022-11-24T17:28:12.739Z,101183.00
2022-11-24T17:30:39.155Z,101173.44
2022-11-24T17:33:05.855Z,101183.81
2022-11-24T17:35:34.120Z,101191.50
2022-11-24T17:38:01.303Z,101183.72
2022-11-24T17:40:31.353Z,101181.09
2022-11-24T17:43:01.335Z,101175.91
2022-11-24T17:45:29.474Z,101180.28
2022-11-24T17:48:00.806Z,101178.63
2022-11-24T17:50:27.408Z,101183.84
2022-11-24T17:52:54.370Z,101183.06
2022-11-24T17:55:21.668Z,101190.00
2022-11-24T17:57:48.122Z,101190.06
2022-11-24T18:00:15.129Z,101190.06
2022-11-24T18:02:41.596Z,101178.00
2022-11-24T18:05:08.623Z,101181.44
2022-11-24T18:07:36.621Z,101181.44
2022-11-24T18:10:03.565Z,101187.47
2022-11-24T18:12:30.125Z,101185.66
2022-11-24T18:14:56.535Z,101196.81
2022-11-24T18:17:22.951Z,101183.84
2022-11-24T18:19:49.395Z,101195.13
2022-11-24T18:22:15.892Z,101191.69
2022-11-24T18:24:42.333Z,101188.19
2022-11-24T18:27:08.778Z,101181.22
2022-11-24T18:29:35.205Z,101184.69
2022-11-24T18:32:01.996Z,101184.69
2022-11-24T18:34:28.434Z,101180.38
2022-11-24T18:36:54.835Z,101173.47
2022-11-24T18:39:21.348Z,101170.88
2022-11-24T18:41:47.863Z,101173.44
2022-11-24T18:44:14.307Z,101169.13
2022-11-24T18:46:40.796Z,101172.63
2022-11-24T18:49:07.534Z,101166.66
2022-11-24T18:51:34.127Z,101171.91
2022-11-24T18:54:02.888Z,101174.56
2022-11-24T18:56:29.492Z,101175.53
2022-11-24T18:58:56.810Z,101169.53
2022-11-24T19:01:28.421Z,101167.84
2022-11-24T19:03:57.317Z,101179.19
2022-11-24T19:06:32.952Z,101174.94
2022-11-24T19:09:02.568Z,101165.44
2022-11-24T19:11:36.763Z,101161.13
2022-11-24T19:14:05.798Z,101151.72
2022-11-24T19:16:33.061Z,101151.72
2022-11-24T19:19:00.373Z,101155.22
2022-11-24T19:21:28.262Z,101162.22
2022-11-24T19:23:58.515Z,101158.84
2022-11-24T19:26:27.922Z,101160.59
2022-11-24T19:28:54.378Z,101152.94
2022-11-24T19:31:20.960Z,101150.38
2022-11-24T19:33:47.665Z,101146.09
2022-11-24T19:36:19.159Z,101152.13
2022-11-24T19:38:53.338Z,101136.63
2022-11-24T19:41:22.126Z,101145.25
2022-11-24T19:43:48.708Z,101140.19
2022-11-24T19:46:17.618Z,101144.53
2022-11-24T19:48:46.603Z,101147.22
2022-11-24T19:51:24.828Z,101151.56
2022-11-24T19:53:52.111Z,101151.63
2022-11-24T19:56:24.010Z,101152.53
2022-11-24T19:58:51.591Z,101161.25
2022-11-24T20:01:27.177Z,101174.22
2022-11-24T20:04:02.962Z,101163.00
2022-11-24T20:06:32.469Z,101163.00
2022-11-24T20:09:00.496Z,101166.44
2022-11-24T20:11:27.888Z,101164.75
2022-11-24T20:13:54.701Z,101162.16
2022-11-24T20:16:26.540Z,101159.56
2022-11-24T20:18:55.278Z,101158.75
2022-11-24T20:21:24.021Z,101154.50
2022-11-24T20:23:56.174Z,101151.00
2022-11-24T20:26:25.481Z,101163.19
2022-11-24T20:28:54.371Z,101162.34
2022-11-24T20:31:24.566Z,101154.59
2022-11-24T20:33:51.454Z,101148.53
2022-11-24T20:36:23.899Z,101143.34
2022-11-24T20:38:52.021Z,101139.00
2022-11-24T20:41:24.379Z,101157.09
2022-11-24T20:43:52.359Z,101145.81
2022-11-24T20:46:24.768Z,101150.03
2022-11-24T20:48:51.741Z,101148.25
2022-11-24T20:51:23.858Z,101142.22
2022-11-24T20:53:52.823Z,101143.06
2022-11-24T20:56:23.003Z,101143.00
2022-11-24T20:58:50.315Z,101146.31
2022-11-24T21:01:25.309Z,101147.91
2022-11-24T21:03:53.986Z,101137.47
2022-11-24T21:06:20.420Z,101144.31
2022-11-24T21:08:46.858Z,101139.06
2022-11-24T21:11:14.362Z,101152.84
2022-11-24T21:13:44.258Z,101142.44
2022-11-24T21:16:18.370Z,101142.38
2022-11-24T21:18:47.151Z,101151.78
2022-11-24T21:21:14.139Z,101145.69
2022-11-24T21:23:40.797Z,101143.06
2022-11-24T21:26:13.046Z,101137.88
2022-11-24T21:28:43.939Z,101133.53
2022-11-24T21:31:13.106Z,101138.63
2022-11-24T21:33:45.366Z,101140.38
2022-11-24T21:36:14.602Z,101131.72
2022-11-24T21:38:42.653Z,101133.41
2022-11-24T21:41:11.796Z,101127.31
2022-11-24T21:43:38.646Z,101128.22
2022-11-24T21:46:07.394Z,101126.47
2022-11-24T21:48:35.508Z,101127.38
2022-11-24T21:51:03.892Z,101127.38
2022-11-24T21:53:32.395Z,101113.69
2022-11-24T21:56:01.370Z,101114.56
2022-11-24T21:58:29.307Z,101111.97
2022-11-24T22:01:02.939Z,101110.19
2022-11-24T22:03:29.471Z,101112.72
2022-11-24T22:05:57.687Z,101117.84
2022-11-24T22:08:25.702Z,101110.06
2022-11-24T22:10:52.672Z,101102.28
2022-11-24T22:13:19.952Z,101099.63
2022-11-24T22:15:46.560Z,101098.75
2022-11-24T22:18:12.995Z,101092.69
2022-11-24T22:20:39.489Z,101090.97
2022-11-24T22:23:06.049Z,101088.31
2022-11-24T22:25:33.431Z,101090.97
2022-11-24T22:28:00.034Z,101097.00
2022-11-24T22:30:26.478Z,101104.81
2022-11-24T22:32:53.233Z,101107.53
2022-11-24T22:35:19.670Z,101108.41
2022-11-24T22:37:46.078Z,101107.41
2022-11-24T22:40:12.629Z,101106.53
2022-11-24T22:42:39.019Z,101103.81
2022-11-24T22:45:06.148Z,101098.63
2022-11-24T22:47:32.710Z,101096.91
2022-11-24T22:49:59.125Z,101094.31
2022-11-24T22:52:25.559Z,101101.28
2022-11-24T22:54:51.967Z,101098.69
2022-11-24T22:57:18.433Z,101102.09
2022-11-24T22:59:44.922Z,101102.09
2022-11-24T23:02:11.341Z,101107.25
2022-11-24T23:04:37.969Z,101108.94
2022-11-24T23:07:04.580Z,101104.59
2022-11-24T23:09:30.992Z,101108.03
2022-11-24T23:11:57.415Z,101108.03
2022-11-24T23:14:23.830Z,101108.03
2022-11-24T23:16:50.265Z,101103.75
2022-11-24T23:19:16.745Z,101100.31
2022-11-24T23:21:43.176Z,101099.50
2022-11-24T23:24:10.680Z,101095.16
2022-11-24T23:26:40.032Z,101093.44
2022-11-24T23:29:06.976Z,101096.88
2022-11-24T23:31:33.887Z,101095.13
2022-11-24T23:34:02.326Z,101092.53
2022-11-24T23:36:29.271Z,101083.91
2022-11-24T23:38:55.856Z,101084.75
2022-11-24T23:41:25.224Z,101083.91
2022-11-24T23:43:52.508Z,101077.81
2022-11-24T23:46:21.212Z,101083.00
2022-11-24T23:48:49.103Z,101084.75
2022-11-24T23:51:19.774Z,101086.44
2022-11-24T23:53:46.506Z,101081.31
2022-11-24T23:56:16.096Z,101085.72
2022-11-24T23:58:42.653Z,101084.03
